Details From LEMG - Malaga
To GEML - MELILLA
Flight Number -
Tags decoded
Created
Modified
Stats Distance 113 nm / 208 km
Max Altitude 0 ft / 0 m
Waypoints 2
Social Downloads 13
Likes 2
Share

Download

Looking for another format? Having issues loading an existing format? Contact us
Advertisement - Login to hide

Notes

Requested: LEMG GEML

Route

LEMG GEML

ID Type Via Altitude (ft/m) Position (lat/lon) Dist (leg/tot) Name
O LEMG APT - 0 / 0 36.67978 / -4.49590 - / 0 nm Malaga
O GEML APT - 0 / 0 35.28037 / -2.95671 112 / 112 nm MELILLA

Altitude Profile

Advertisement - Login to hide

LEMG

Details ICAO LEMG (AGP)
Name Málaga-Costa del Sol
Region Spain
Timezone Europe/Madrid (UTC+2.0)
Stats Elevation 52 ft / 16 m (AMSL)
Location 36.680200° -4.496650°
Runways 2
Magnetic Variation 0.465° W

METAR

LEMG 051730Z 11005KT 080V140 CAVOK 27/19 Q1011 NOSIG

Decode

TAF

TAF LEMG 051700Z 0518/0618 12010KT CAVOK TX36/0612Z TN23/0604Z BECMG 0518/0520 29006KT BECMG 0608/0610 13010KT

Decode

Departure Runways

ID Width Length Bearing (true/mag) Surface Threshold Overrun Markings Lighting
12 148 ft / 45 m 9,020 ft / 2,749 m 117.69° / 118.16° ASPHALT 0 ft / 0 m 0 ft / 0 m PREC-APP CENTERLINE EDGE THRESHOLD ALSF-I TDZ REIL-OMNI
13 148 ft / 45 m 10,498 ft / 3,200 m 131.69° / 132.15° ASPHALT 0 ft / 0 m 0 ft / 0 m PREC-APP CENTERLINE EDGE THRESHOLD ALSF-I REIL-OMNI
30 148 ft / 45 m 9,020 ft / 2,749 m 297.71° / 298.17° ASPHALT 0 ft / 0 m 0 ft / 0 m VISUAL CENTERLINE EDGE THRESHOLD REIL-OMNI
31 148 ft / 45 m 10,498 ft / 3,200 m 311.70° / 312.17° ASPHALT 0 ft / 0 m 0 ft / 0 m PREC-APP CENTERLINE EDGE THRESHOLD ALSF-I REIL-OMNI

GEML

Details ICAO GEML (MLN)
Name Melilla
Region Ceuta and Melilla
Timezone Africa/Casablanca (UTC+1.0)
Stats Elevation 156 ft / 48 m (AMSL)
Location 35.280500° -2.956780°
Runways 1
Magnetic Variation 0.061° W

METAR

GEML 051730Z 13006KT 110V170 CAVOK 28/19 Q1012

Decode

TAF

TAF TAF GEML 051700Z 0518/0618 VRB04KT CAVOK TX33/0614Z TN21/0606Z BECMG 0609/0612 28010KT

Decode

Destination Runways

ID Width Length Bearing (true/mag) Surface Threshold Overrun Markings Lighting
15 149 ft / 45 m 4,886 ft / 1,489 m 146.47° / 146.53° ASPHALT 958 ft / 292 m 0 ft / 0 m PREC-APP EDGE THRESHOLD RAIL REIL-OMNI
33 149 ft / 45 m 4,886 ft / 1,489 m 326.47° / 326.53° ASPHALT 0 ft / 0 m 315 ft / 96 m PREC-APP EDGE THRESHOLD REIL-OMNI

Popular Alternatives